Time,TemperatureF,DewpointF,PressureIn,WindDirection,WindDirectionDegrees,WindSpeedMPH,WindSpeedGustMPH,Humidity,HourlyPrecipIn,Conditions,Clouds,dailyrainin,SoftwareType,DateUTC
2013-05-09 00:11:00,58.6,56.0,30.01,WNW,286,0.0,-999.0,92,-99.99,,,0.00,weatherlink.com 1.10,2013-05-09 05:11:00,
2013-05-09 00:26:00,58.1,56.0,30.01,WNW,286,0.0,-999.0,92,-99.99,,,0.00,weatherlink.com 1.10,2013-05-09 05:26:00,
2013-05-09 00:41:00,57.9,56.0,30.01,WNW,286,0.0,-999.0,93,-99.99,,,0.00,weatherlink.com 1.10,2013-05-09 05:41:00,
2013-05-09 00:56:00,57.5,56.0,30.01,WNW,286,0.0,-999.0,93,-99.99,,,0.00,weatherlink.com 1.10,2013-05-09 05:56:00,
2013-05-09 01:12:00,57.3,56.0,30.00,WNW,286,0.0,-999.0,94,-99.99,,,0.00,weatherlink.com 1.10,2013-05-09 06:12:00,
2013-05-09 01:26:00,57.1,55.0,30.00,WNW,286,0.0,-999.0,94,-99.99,,,0.00,weatherlink.com 1.10,2013-05-09 06:26:00,
2013-05-09 01:41:00,56.7,55.0,30.00,WNW,286,0.0,-999.0,94,-99.99,,,0.00,weatherlink.com 1.10,2013-05-09 06:41:00,
2013-05-09 01:56:00,56.5,55.0,30.00,WNW,286,0.0,-999.0,94,-99.99,,,0.00,weatherlink.com 1.10,2013-05-09 06:56:00,
2013-05-09 02:11:00,56.4,55.0,30.00,WNW,286,0.0,-999.0,95,-99.99,,,0.00,weatherlink.com 1.10,2013-05-09 07:11:00,
2013-05-09 02:26:00,56.3,55.0,30.01,WNW,286,0.0,-999.0,95,-99.99,,,0.00,weatherlink.com 1.10,2013-05-09 07:26:00,
2013-05-09 02:41:00,56.1,55.0,30.02,WNW,286,0.0,-999.0,95,-99.99,,,0.00,weatherlink.com 1.10,2013-05-09 07:41:00,
2013-05-09 02:56:00,56.0,55.0,30.02,WNW,286,0.0,-999.0,95,-99.99,,,0.00,weatherlink.com 1.10,2013-05-09 07:56:00,
2013-05-09 03:11:00,55.8,54.0,30.01,WNW,286,0.0,-999.0,95,-99.99,,,0.00,weatherlink.com 1.10,2013-05-09 08:11:00,
2013-05-09 03:26:00,55.6,54.0,30.02,WNW,286,0.0,-999.0,95,-99.99,,,0.00,weatherlink.com 1.10,2013-05-09 08:26:00,
2013-05-09 03:41:00,55.3,54.0,30.01,WNW,286,0.0,-999.0,95,-99.99,,,0.00,weatherlink.com 1.10,2013-05-09 08:41:00,
2013-05-09 03:57:00,54.9,54.0,30.02,WNW,286,0.0,-999.0,95,-99.99,,,0.00,weatherlink.com 1.10,2013-05-09 08:57:00,
2013-05-09 04:11:00,54.9,54.0,30.02,WNW,286,0.0,-999.0,96,-99.99,,,0.00,weatherlink.com 1.10,2013-05-09 09:11:00,
2013-05-09 04:26:00,55.0,54.0,30.02,WNW,286,0.0,-999.0,96,-99.99,,,0.00,weatherlink.com 1.10,2013-05-09 09:26:00,
2013-05-09 04:41:00,55.1,54.0,30.02,WNW,286,0.0,-999.0,96,-99.99,,,0.00,weatherlink.com 1.10,2013-05-09 09:41:00,
2013-05-09 04:56:00,54.9,54.0,30.02,WNW,286,0.0,-999.0,96,-99.99,,,0.00,weatherlink.com 1.10,2013-05-09 09:56:00,
2013-05-09 05:11:00,54.6,54.0,30.02,WNW,286,0.0,-999.0,96,-99.99,,,0.00,weatherlink.com 1.10,2013-05-09 10:11:00,
2013-05-09 05:26:00,54.7,54.0,30.02,WNW,286,0.0,-999.0,96,-99.99,,,0.00,weatherlink.com 1.10,2013-05-09 10:26:00,
2013-05-09 05:41:00,54.6,54.0,30.03,WNW,286,0.0,-999.0,96,-99.99,,,0.00,weatherlink.com 1.10,2013-05-09 10:41:00,
2013-05-09 05:56:00,54.8,54.0,30.03,WNW,286,0.0,-999.0,96,-99.99,,,0.00,weatherlink.com 1.10,2013-05-09 10:56:00,
2013-05-09 06:11:00,54.7,54.0,30.04,WNW,286,0.0,-999.0,96,-99.99,,,0.00,weatherlink.com 1.10,2013-05-09 11:11:00,
2013-05-09 06:26:00,54.8,54.0,30.04,WNW,286,0.0,-999.0,96,-99.99,,,0.00,weatherlink.com 1.10,2013-05-09 11:26:00,
2013-05-09 06:42:00,55.3,55.0,30.05,WNW,286,0.0,-999.0,97,-99.99,,,0.00,weatherlink.com 1.10,2013-05-09 11:42:00,
2013-05-09 06:56:00,55.7,55.0,30.05,WNW,286,0.0,-999.0,97,-99.99,,,0.00,weatherlink.com 1.10,2013-05-09 11:56:00,
2013-05-09 07:11:00,56.6,56.0,30.05,WNW,286,0.0,-999.0,97,-99.99,,,0.00,weatherlink.com 1.10,2013-05-09 12:11:00,
2013-05-09 07:26:00,57.8,57.0,30.05,WNW,286,0.0,-999.0,97,-99.99,,,0.00,weatherlink.com 1.10,2013-05-09 12:26:00,
2013-05-09 07:41:00,58.6,58.0,30.07,WNW,286,0.0,-999.0,96,-99.99,,,0.00,weatherlink.com 1.10,2013-05-09 12:41:00,
2013-05-09 07:56:00,60.0,59.0,30.07,WNW,286,0.0,-999.0,96,-99.99,,,0.00,weatherlink.com 1.10,2013-05-09 12:56:00,
2013-05-09 08:11:00,61.6,60.0,30.07,WNW,286,0.0,-999.0,94,-99.99,,,0.00,weatherlink.com 1.10,2013-05-09 13:11:00,
2013-05-09 08:26:00,61.9,60.0,30.07,WNW,286,0.0,-999.0,92,-99.99,,,0.00,weatherlink.com 1.10,2013-05-09 13:26:00,
2013-05-09 08:41:00,62.7,60.0,30.07,WNW,286,2.0,-999.0,91,-99.99,,,0.00,weatherlink.com 1.10,2013-05-09 13:41:00,
2013-05-09 08:56:00,63.0,60.0,30.07,NW,307,0.0,-999.0,89,-99.99,,,0.00,weatherlink.com 1.10,2013-05-09 13:56:00,
2013-05-09 09:11:00,63.6,60.0,30.07,NW,307,0.0,-999.0,88,-99.99,,,0.00,weatherlink.com 1.10,2013-05-09 14:11:00,
2013-05-09 09:27:00,64.7,61.0,30.07,NW,307,0.0,-999.0,87,-99.99,,,0.00,weatherlink.com 1.10,2013-05-09 14:27:00,
2013-05-09 09:41:00,66.3,62.0,30.07,NW,307,0.0,-999.0,85,-99.99,,,0.00,weatherlink.com 1.10,2013-05-09 14:41:00,
2013-05-09 09:56:00,67.7,62.0,30.07,NW,315,0.0,-999.0,83,-99.99,,,0.00,weatherlink.com 1.10,2013-05-09 14:56:00,
2013-05-09 10:11:00,69.8,63.0,30.07,NW,316,1.0,-999.0,80,-99.99,,,0.00,weatherlink.com 1.10,2013-05-09 15:11:00,
2013-05-09 10:26:00,72.8,63.0,30.07,SW,229,0.0,-999.0,72,-99.99,,,0.00,weatherlink.com 1.10,2013-05-09 15:26:00,
2013-05-09 10:41:00,75.7,64.0,30.07,SSW,205,7.0,-999.0,66,-99.99,,,0.00,weatherlink.com 1.10,2013-05-09 15:41:00,
2013-05-09 10:56:00,76.7,63.0,30.08,SW,236,0.0,-999.0,63,-99.99,,,0.00,weatherlink.com 1.10,2013-05-09 15:56:00,
2013-05-09 11:11:00,78.1,62.0,30.08,SW,225,6.0,-999.0,57,-99.99,,,0.00,weatherlink.com 1.10,2013-05-09 16:11:00,
2013-05-09 11:26:00,78.0,60.0,30.08,SW,214,5.0,-999.0,55,-99.99,,,0.00,weatherlink.com 1.10,2013-05-09 16:26:00,
2013-05-09 11:41:00,78.5,60.0,30.07,SSW,200,0.0,-999.0,54,-99.99,,,0.00,weatherlink.com 1.10,2013-05-09 16:41:00,
2013-05-09 11:56:00,78.3,59.0,30.08,WSW,255,7.0,-999.0,52,-99.99,,,0.00,weatherlink.com 1.10,2013-05-09 16:56:00,
2013-05-09 12:12:00,78.4,59.0,30.07,West,264,4.0,-999.0,52,-99.99,,,0.00,weatherlink.com 1.10,2013-05-09 17:12:00,
2013-05-09 12:26:00,78.9,59.0,30.07,SSW,206,7.0,-999.0,50,-99.99,,,0.00,weatherlink.com 1.10,2013-05-09 17:26:00,
2013-05-09 12:41:00,79.4,59.0,30.07,SE,142,4.0,-999.0,50,-99.99,,,0.00,weatherlink.com 1.10,2013-05-09 17:41:00,
2013-05-09 12:56:00,79.2,58.0,30.07,SSW,202,1.0,-999.0,48,-99.99,,,0.00,weatherlink.com 1.10,2013-05-09 17:56:00,
2013-05-09 13:26:00,80.2,58.0,30.05,SW,230,5.0,-999.0,46,-99.99,,,0.00,weatherlink.com 1.10,2013-05-09 18:26:00,
2013-05-09 13:56:00,80.3,58.0,30.05,SSW,201,8.0,-999.0,46,-99.99,,,0.00,weatherlink.com 1.10,2013-05-09 18:56:00,
2013-05-09 14:11:00,81.1,57.0,30.05,SE,146,8.0,-999.0,44,-99.99,,,0.00,weatherlink.com 1.10,2013-05-09 19:11:00,
2013-05-09 14:26:00,81.5,58.0,30.04,WSW,240,6.0,-999.0,45,-99.99,,,0.00,weatherlink.com 1.10,2013-05-09 19:26:00,
2013-05-09 14:41:00,80.9,56.0,30.03,SW,215,4.0,-999.0,43,-99.99,,,0.00,weatherlink.com 1.10,2013-05-09 19:41:00,
2013-05-09 14:56:00,81.0,58.0,30.02,WSW,244,5.0,-999.0,46,-99.99,,,0.00,weatherlink.com 1.10,2013-05-09 19:56:00,
2013-05-09 15:11:00,81.4,58.0,30.01,WSW,237,1.0,-999.0,45,-99.99,,,0.00,weatherlink.com 1.10,2013-05-09 20:11:00,
2013-05-09 15:26:00,82.0,58.0,30.01,West,271,4.0,-999.0,44,-99.99,,,0.00,weatherlink.com 1.10,2013-05-09 20:26:00,
2013-05-09 15:41:00,81.8,58.0,30.00,SW,216,0.0,-999.0,44,-99.99,,,0.00,weatherlink.com 1.10,2013-05-09 20:41:00,
2013-05-09 15:56:00,81.8,58.0,30.00,South,184,2.0,-999.0,45,-99.99,,,0.00,weatherlink.com 1.10,2013-05-09 20:56:00,
2013-05-09 16:11:00,81.6,59.0,30.00,WSW,255,1.0,-999.0,46,-99.99,,,0.00,weatherlink.com 1.10,2013-05-09 21:11:00,
2013-05-09 16:26:00,81.2,58.0,29.99,South,191,6.0,-999.0,45,-99.99,,,0.00,weatherlink.com 1.10,2013-05-09 21:26:00,
2013-05-09 16:41:00,81.4,59.0,29.98,SW,229,6.0,-999.0,46,-99.99,,,0.00,weatherlink.com 1.10,2013-05-09 21:41:00,
2013-05-09 16:56:00,81.1,59.0,29.98,SSW,196,10.0,-999.0,47,-99.99,,,0.00,weatherlink.com 1.10,2013-05-09 21:56:00,
2013-05-09 17:11:00,80.8,59.0,29.98,SW,216,8.0,-999.0,48,-99.99,,,0.00,weatherlink.com 1.10,2013-05-09 22:11:00,
2013-05-09 17:26:00,81.0,59.0,29.98,WSW,247,5.0,-999.0,47,-99.99,,,0.00,weatherlink.com 1.10,2013-05-09 22:26:00,
2013-05-09 17:41:00,81.5,59.0,29.97,SE,129,0.0,-999.0,47,-99.99,,,0.00,weatherlink.com 1.10,2013-05-09 22:41:00,
2013-05-09 17:56:00,80.4,58.0,29.97,SSE,167,0.0,-999.0,46,-99.99,,,0.00,weatherlink.com 1.10,2013-05-09 22:56:00,
2013-05-09 18:11:00,80.4,58.0,29.97,South,169,1.0,-999.0,47,-99.99,,,0.00,weatherlink.com 1.10,2013-05-09 23:11:00,
2013-05-09 18:26:00,80.6,59.0,29.97,SW,227,0.0,-999.0,48,-99.99,,,0.00,weatherlink.com 1.10,2013-05-09 23:26:00,
2013-05-09 18:41:00,79.6,59.0,29.97,SSW,205,0.0,-999.0,50,-99.99,,,0.00,weatherlink.com 1.10,2013-05-09 23:41:00,
2013-05-09 18:56:00,79.2,61.0,29.97,SSW,205,0.0,-999.0,54,-99.99,,,0.00,weatherlink.com 1.10,2013-05-09 23:56:00,
2013-05-09 19:11:00,77.4,61.0,29.97,SSW,205,0.0,-999.0,57,-99.99,,,0.00,weatherlink.com 1.10,2013-05-10 00:11:00,
2013-05-09 19:26:00,75.2,61.0,29.97,SSW,205,0.0,-999.0,62,-99.99,,,0.00,weatherlink.com 1.10,2013-05-10 00:26:00,
2013-05-09 19:41:00,73.7,60.0,29.98,SSW,205,0.0,-999.0,63,-99.99,,,0.00,weatherlink.com 1.10,2013-05-10 00:41:00,
2013-05-09 19:56:00,72.0,60.0,29.99,SSW,205,0.0,-999.0,67,-99.99,,,0.00,weatherlink.com 1.10,2013-05-10 00:56:00,
2013-05-09 20:11:00,70.7,60.0,30.00,SSW,205,0.0,-999.0,70,-99.99,,,0.00,weatherlink.com 1.10,2013-05-10 01:11:00,
2013-05-09 20:26:00,69.7,60.0,30.00,SSW,205,0.0,-999.0,72,-99.99,,,0.00,weatherlink.com 1.10,2013-05-10 01:26:00,
2013-05-09 20:41:00,69.1,61.0,30.01,SSW,205,0.0,-999.0,75,-99.99,,,0.00,weatherlink.com 1.10,2013-05-10 01:41:00,
2013-05-09 20:56:00,68.9,61.0,30.01,SSW,205,0.0,-999.0,76,-99.99,,,0.00,weatherlink.com 1.10,2013-05-10 01:56:00,
2013-05-09 21:11:00,68.8,61.0,30.01,SSW,205,0.0,-999.0,75,-99.99,,,0.00,weatherlink.com 1.10,2013-05-10 02:11:00,
2013-05-09 21:26:00,68.5,61.0,30.02,SSW,205,0.0,-999.0,78,-99.99,,,0.00,weatherlink.com 1.10,2013-05-10 02:26:00,
2013-05-09 21:41:00,67.7,61.0,30.02,SSW,205,0.0,-999.0,79,-99.99,,,0.00,weatherlink.com 1.10,2013-05-10 02:41:00,
2013-05-09 21:56:00,67.2,61.0,30.02,SSW,205,0.0,-999.0,80,-99.99,,,0.00,weatherlink.com 1.10,2013-05-10 02:56:00,
2013-05-09 22:11:00,66.6,61.0,30.02,SSW,205,0.0,-999.0,81,-99.99,,,0.00,weatherlink.com 1.10,2013-05-10 03:11:00,
2013-05-09 22:26:00,66.2,61.0,30.02,SSW,205,0.0,-999.0,83,-99.99,,,0.00,weatherlink.com 1.10,2013-05-10 03:26:00,
2013-05-09 22:41:00,65.9,61.0,30.01,SSW,205,0.0,-999.0,83,-99.99,,,0.00,weatherlink.com 1.10,2013-05-10 03:41:00,
2013-05-09 22:56:00,65.0,60.0,30.01,SSW,205,0.0,-999.0,85,-99.99,,,0.00,weatherlink.com 1.10,2013-05-10 03:56:00,
2013-05-09 23:11:00,64.4,60.0,30.02,SSW,205,0.0,-999.0,86,-99.99,,,0.00,weatherlink.com 1.10,2013-05-10 04:11:00,
2013-05-09 23:26:00,64.0,60.0,30.02,SSW,205,0.0,-999.0,87,-99.99,,,0.00,weatherlink.com 1.10,2013-05-10 04:26:00,
2013-05-09 23:41:00,63.7,60.0,30.02,SSW,205,0.0,-999.0,88,-99.99,,,0.00,weatherlink.com 1.10,2013-05-10 04:41:00,
2013-05-09 23:56:00,63.5,60.0,30.02,SSW,205,0.0,-999.0,88,-99.99,,,0.00,weatherlink.com 1.10,2013-05-10 04:56:00,